createdAt,value
2018-10-17T00:00:11.541Z,99.90
2018-10-17T00:02:40.313Z,99.90
2018-10-17T00:05:09.200Z,99.90
2018-10-17T00:07:37.861Z,99.90
2018-10-17T00:10:07.368Z,99.90
2018-10-17T00:12:36.054Z,99.90
2018-10-17T00:15:04.535Z,99.90
2018-10-17T00:17:32.905Z,99.90
2018-10-17T00:20:01.269Z,99.90
2018-10-17T00:22:29.642Z,99.90
2018-10-17T00:24:58.025Z,99.90
2018-10-17T00:27:26.721Z,99.90
2018-10-17T00:29:55.112Z,99.90
2018-10-17T00:32:23.503Z,99.90
2018-10-17T00:34:51.886Z,99.90
2018-10-17T00:37:20.321Z,99.90
2018-10-17T00:39:48.714Z,99.90
2018-10-17T00:42:17.069Z,99.90
2018-10-17T00:44:45.423Z,99.90
2018-10-17T00:47:13.855Z,99.90
2018-10-17T00:49:42.193Z,99.90
2018-10-17T00:52:10.553Z,99.90
2018-10-17T00:54:38.927Z,99.90
2018-10-17T00:57:07.451Z,99.90
2018-10-17T00:59:35.816Z,99.90
2018-10-17T01:02:04.264Z,99.90
2018-10-17T01:04:33.103Z,99.90
2018-10-17T01:07:01.538Z,99.90
2018-10-17T01:09:29.906Z,99.90
2018-10-17T01:11:58.270Z,99.90
2018-10-17T01:14:26.677Z,99.90
2018-10-17T01:16:55.069Z,99.90
2018-10-17T01:19:23.424Z,99.90
2018-10-17T01:21:51.783Z,99.90
2018-10-17T01:24:20.175Z,99.90
2018-10-17T01:26:48.526Z,99.90
2018-10-17T01:29:16.990Z,99.90
2018-10-17T01:31:45.326Z,99.90
2018-10-17T01:34:13.670Z,99.90
2018-10-17T01:36:42.042Z,99.90
2018-10-17T01:39:11.202Z,99.90
2018-10-17T01:41:39.663Z,99.90
2018-10-17T01:44:08.316Z,99.90
2018-10-17T01:46:36.950Z,99.90
2018-10-17T01:49:05.869Z,99.90
2018-10-17T01:51:34.207Z,99.90
2018-10-17T01:54:02.584Z,99.90
2018-10-17T01:56:30.932Z,99.90
2018-10-17T01:58:59.350Z,99.90
2018-10-17T02:01:28.046Z,99.90
2018-10-17T02:03:56.438Z,99.90
2018-10-17T02:06:24.791Z,99.90
2018-10-17T02:08:53.164Z,99.90
2018-10-17T02:11:21.527Z,99.90
2018-10-17T02:13:49.878Z,99.90
2018-10-17T02:16:18.251Z,99.90
2018-10-17T02:18:46.606Z,99.90
2018-10-17T02:21:14.957Z,99.90
2018-10-17T02:23:43.322Z,99.90
2018-10-17T02:26:11.694Z,99.90
2018-10-17T02:28:40.063Z,99.90
2018-10-17T02:31:08.658Z,99.90
2018-10-17T02:33:36.963Z,99.90
2018-10-17T02:36:05.645Z,99.90
2018-10-17T02:38:34.000Z,99.90
2018-10-17T02:41:02.437Z,99.90
2018-10-17T02:43:30.779Z,99.90
2018-10-17T02:45:59.146Z,99.90
2018-10-17T02:48:27.508Z,99.90
2018-10-17T02:50:55.860Z,99.90
2018-10-17T02:53:24.294Z,99.90
2018-10-17T02:55:52.651Z,99.90
2018-10-17T02:58:21.014Z,99.90
2018-10-17T03:00:49.413Z,99.90
2018-10-17T03:03:17.773Z,99.90
2018-10-17T03:05:46.140Z,99.90
2018-10-17T03:08:14.889Z,99.90
2018-10-17T03:10:43.257Z,99.90
2018-10-17T03:13:11.705Z,99.90
2018-10-17T03:15:40.005Z,99.90
2018-10-17T03:18:08.375Z,99.90
2018-10-17T03:20:36.743Z,99.90
2018-10-17T03:23:05.735Z,99.90
2018-10-17T03:25:34.001Z,99.90
2018-10-17T03:28:02.506Z,99.90
2018-10-17T03:30:30.950Z,99.90
2018-10-17T03:32:59.303Z,99.90
2018-10-17T03:35:27.663Z,99.90
2018-10-17T03:37:56.041Z,99.90
2018-10-17T03:40:24.412Z,99.90
2018-10-17T03:42:52.802Z,99.90
2018-10-17T03:45:21.203Z,99.90
2018-10-17T03:47:49.564Z,99.90
2018-10-17T03:50:17.917Z,99.90
2018-10-17T03:52:46.323Z,99.90
2018-10-17T03:55:14.736Z,99.90
2018-10-17T03:57:43.093Z,99.90
2018-10-17T04:00:11.483Z,99.90
2018-10-17T04:02:39.840Z,99.90
2018-10-17T04:05:08.650Z,99.90
2018-10-17T04:07:36.958Z,99.90
2018-10-17T04:10:05.835Z,99.90
2018-10-17T04:12:34.209Z,99.90
2018-10-17T04:15:02.609Z,99.90
2018-10-17T04:17:30.984Z,99.90
2018-10-17T04:19:59.343Z,99.90
2018-10-17T04:22:27.798Z,99.90
2018-10-17T04:24:56.506Z,99.90
2018-10-17T04:27:24.877Z,99.90
2018-10-17T04:29:53.255Z,99.90
2018-10-17T04:32:21.619Z,99.90
2018-10-17T04:34:49.998Z,99.90
2018-10-17T04:37:18.784Z,99.90
2018-10-17T04:39:47.108Z,99.90
2018-10-17T04:42:15.459Z,99.90
2018-10-17T04:44:44.172Z,99.90
2018-10-17T04:47:12.619Z,99.90
2018-10-17T04:49:41.252Z,99.90
2018-10-17T04:52:10.231Z,99.90
2018-10-17T04:54:38.592Z,99.90
2018-10-17T04:57:07.275Z,99.90
2018-10-17T04:59:35.667Z,99.90
2018-10-17T05:02:04.074Z,99.90
2018-10-17T05:04:32.492Z,99.90
2018-10-17T05:07:01.179Z,99.90
2018-10-17T05:09:29.814Z,99.90
2018-10-17T05:11:58.191Z,99.90
2018-10-17T05:14:26.565Z,99.90
2018-10-17T05:16:54.945Z,99.90
2018-10-17T05:19:23.341Z,99.90
2018-10-17T05:21:51.736Z,99.90
2018-10-17T05:24:20.386Z,99.90
2018-10-17T05:26:48.780Z,99.90
2018-10-17T05:29:17.184Z,99.90
2018-10-17T05:31:45.910Z,99.90
2018-10-17T05:34:14.508Z,99.90
2018-10-17T05:36:43.156Z,99.90
2018-10-17T05:39:11.620Z,99.90
2018-10-17T05:41:39.986Z,99.90
2018-10-17T05:44:08.375Z,99.90
2018-10-17T05:46:37.059Z,99.90
2018-10-17T05:49:06.200Z,99.90
2018-10-17T05:51:34.725Z,99.90
2018-10-17T05:54:03.098Z,99.90
2018-10-17T05:56:31.467Z,99.90
2018-10-17T05:58:59.865Z,99.90
2018-10-17T06:01:28.611Z,99.90
2018-10-17T06:03:56.920Z,99.90
2018-10-17T06:06:25.428Z,99.90
2018-10-17T06:08:53.790Z,99.90
2018-10-17T06:11:22.160Z,99.90
2018-10-17T06:13:50.796Z,99.90
2018-10-17T06:16:19.197Z,99.90
2018-10-17T06:18:47.560Z,99.90
2018-10-17T06:21:16.238Z,99.90
2018-10-17T06:23:44.612Z,99.90
2018-10-17T06:26:13.004Z,99.90
2018-10-17T06:28:41.377Z,99.90
2018-10-17T06:31:10.136Z,99.90
2018-10-17T06:33:38.475Z,99.90
2018-10-17T06:36:07.101Z,99.90
2018-10-17T06:38:35.470Z,99.90
2018-10-17T06:41:03.991Z,99.90
2018-10-17T06:43:32.602Z,99.90
2018-10-17T06:46:01.021Z,99.90
2018-10-17T06:48:29.384Z,99.90
2018-10-17T06:50:57.785Z,99.90
2018-10-17T06:53:26.168Z,99.90
2018-10-17T06:55:54.550Z,99.90
2018-10-17T06:58:22.955Z,99.90
2018-10-17T07:00:51.325Z,99.90
2018-10-17T07:03:19.818Z,99.90
2018-10-17T07:05:48.199Z,99.90
2018-10-17T07:08:16.616Z,99.90
2018-10-17T07:10:44.994Z,99.90
2018-10-17T07:13:13.553Z,99.90
2018-10-17T07:15:42.018Z,99.90
2018-10-17T07:18:10.258Z,99.90
2018-10-17T07:20:38.862Z,99.90
2018-10-17T07:23:07.270Z,99.90
2018-10-17T07:25:35.632Z,99.90
2018-10-17T07:28:04.317Z,99.90
2018-10-17T07:30:32.685Z,99.90
2018-10-17T07:33:01.063Z,99.90
2018-10-17T07:35:29.509Z,99.90
2018-10-17T07:37:57.865Z,99.90
2018-10-17T07:40:26.533Z,99.90
2018-10-17T07:42:54.906Z,99.90
2018-10-17T07:45:23.293Z,99.90
2018-10-17T07:47:51.987Z,99.90
2018-10-17T07:50:20.374Z,99.90
2018-10-17T07:52:48.733Z,99.90
2018-10-17T07:55:17.454Z,99.90
2018-10-17T07:57:46.125Z,99.90
2018-10-17T08:00:15.064Z,99.90
2018-10-17T08:02:43.386Z,99.90
2018-10-17T08:05:11.781Z,99.90
2018-10-17T08:07:40.205Z,99.90
2018-10-17T08:10:09.759Z,99.90
2018-10-17T08:12:38.419Z,99.90
2018-10-17T08:15:07.960Z,99.90
2018-10-17T08:17:36.430Z,99.90
2018-10-17T08:20:05.522Z,99.90
2018-10-17T08:22:34.492Z,99.90
2018-10-17T08:25:02.871Z,99.90
2018-10-17T08:27:31.269Z,99.90
2018-10-17T08:29:59.986Z,99.90
2018-10-17T08:32:28.323Z,99.90
2018-10-17T08:34:56.716Z,99.90
2018-10-17T08:37:25.633Z,99.90
2018-10-17T08:39:53.697Z,99.90
2018-10-17T08:42:22.090Z,99.90
2018-10-17T08:44:50.502Z,99.90
2018-10-17T08:47:18.848Z,99.90
2018-10-17T08:49:47.238Z,99.90
2018-10-17T08:52:15.617Z,99.90
2018-10-17T08:54:43.990Z,99.90
2018-10-17T08:57:12.676Z,99.90
2018-10-17T08:59:41.045Z,99.90
2018-10-17T09:02:09.451Z,99.90
2018-10-17T09:04:37.929Z,99.90
2018-10-17T09:07:06.645Z,99.90
2018-10-17T09:09:35.036Z,99.90
2018-10-17T09:12:03.464Z,99.90
2018-10-17T09:14:31.828Z,99.90
2018-10-17T09:17:00.677Z,99.90
2018-10-17T09:19:29.532Z,99.90
2018-10-17T09:21:58.011Z,99.90
2018-10-17T09:24:26.171Z,99.90
2018-10-17T09:26:54.558Z,99.90
2018-10-17T09:29:22.938Z,99.90
2018-10-17T09:31:51.879Z,99.90
2018-10-17T09:34:20.335Z,99.90
2018-10-17T09:36:48.722Z,99.90
2018-10-17T09:39:17.124Z,99.90
2018-10-17T09:41:45.741Z,99.90
2018-10-17T09:44:14.132Z,99.90
2018-10-17T09:46:42.912Z,99.90
2018-10-17T09:49:11.505Z,99.90
2018-10-17T09:51:39.901Z,99.90
2018-10-17T09:54:08.330Z,99.90
2018-10-17T09:56:36.654Z,99.90
2018-10-17T09:59:05.328Z,99.90
2018-10-17T10:01:39.023Z,99.90
2018-10-17T10:04:07.842Z,99.90
2018-10-17T10:06:36.207Z,99.90
2018-10-17T10:09:06.596Z,98.30
2018-10-17T10:11:34.968Z,97.80
2018-10-17T10:14:03.661Z,97.40
2018-10-17T10:16:32.036Z,99.90
2018-10-17T10:19:00.678Z,99.90
2018-10-17T10:21:29.326Z,99.80
2018-10-17T10:23:58.087Z,99.90
2018-10-17T10:26:26.486Z,99.20
2018-10-17T10:28:55.110Z,99.70
2018-10-17T10:31:23.936Z,98.10
2018-10-17T10:33:52.770Z,96.90
2018-10-17T10:36:21.373Z,95.30
2018-10-17T10:40:19.221Z,95.30
2018-10-17T10:42:47.597Z,95.40
2018-10-17T10:45:16.479Z,95.20
2018-10-17T10:47:45.046Z,95.80
2018-10-17T10:50:13.740Z,95.20
2018-10-17T10:52:43.043Z,93.40
2018-10-17T10:55:11.390Z,92.80
2018-10-17T10:57:39.783Z,92.80
2018-10-17T11:00:08.293Z,92.40
2018-10-17T11:02:36.650Z,92.90
2018-10-17T11:05:05.353Z,94.10
2018-10-17T11:07:33.724Z,93.70
2018-10-17T11:10:02.127Z,92.60
2018-10-17T11:12:30.640Z,93.10
2018-10-17T11:14:59.213Z,90.60
2018-10-17T11:17:27.472Z,91.10
2018-10-17T11:19:55.844Z,92.50
2018-10-17T11:22:24.508Z,90.00
2018-10-17T11:24:53.082Z,88.90
2018-10-17T11:27:21.466Z,87.50
2018-10-17T11:29:49.831Z,87.60
2018-10-17T11:32:18.346Z,87.70
2018-10-17T11:34:46.702Z,86.90
2018-10-17T11:37:15.097Z,86.00
2018-10-17T11:39:43.755Z,86.50
2018-10-17T11:42:12.112Z,86.20
2018-10-17T11:44:40.460Z,86.70
2018-10-17T11:47:08.911Z,86.40
2018-10-17T11:49:37.272Z,88.00
2018-10-17T11:52:06.005Z,85.30
2018-10-17T11:54:34.393Z,85.80
2018-10-17T11:57:02.836Z,86.40
2018-10-17T11:59:31.211Z,84.70
2018-10-17T12:01:59.773Z,84.30
2018-10-17T12:04:28.433Z,83.90
2018-10-17T12:06:56.615Z,83.60
2018-10-17T12:09:25.005Z,84.30
2018-10-17T12:11:53.442Z,81.70
2018-10-17T12:14:21.975Z,80.80
2018-10-17T12:16:50.410Z,80.40
2018-10-17T12:19:19.049Z,79.00
2018-10-17T12:21:48.018Z,79.10
2018-10-17T12:24:16.499Z,78.50
2018-10-17T12:26:44.803Z,77.50
2018-10-17T12:29:13.191Z,79.00
2018-10-17T12:31:42.180Z,79.50
2018-10-17T12:34:10.552Z,78.50
2018-10-17T12:36:38.929Z,76.30
2018-10-17T12:39:09.919Z,77.20
2018-10-17T12:41:38.311Z,75.20
2018-10-17T12:44:06.975Z,76.00
2018-10-17T12:46:35.353Z,74.90
2018-10-17T12:49:03.803Z,75.10
2018-10-17T12:51:32.149Z,75.30
2018-10-17T12:54:00.546Z,74.90
2018-10-17T12:56:28.925Z,74.10
2018-10-17T12:58:57.349Z,72.20
2018-10-17T13:01:25.708Z,72.20
2018-10-17T13:03:54.177Z,71.40
2018-10-17T13:06:22.584Z,70.90
2018-10-17T13:08:51.012Z,72.00
2018-10-17T13:11:19.694Z,73.40
2018-10-17T13:13:48.008Z,69.80
2018-10-17T13:16:16.429Z,70.50
2018-10-17T13:18:44.827Z,69.40
2018-10-17T13:21:13.439Z,67.60
2018-10-17T13:23:41.839Z,67.70
2018-10-17T13:26:10.218Z,67.70
2018-10-17T13:28:38.602Z,67.80
2018-10-17T13:31:07.313Z,68.00
2018-10-17T13:33:35.690Z,68.00
2018-10-17T13:36:04.083Z,68.00
2018-10-17T13:38:32.460Z,68.30
2018-10-17T13:41:01.130Z,68.10
2018-10-17T13:43:29.478Z,69.40
2018-10-17T13:45:57.905Z,68.90
2018-10-17T13:48:26.280Z,67.50
2018-10-17T13:50:54.643Z,67.80
2018-10-17T13:53:23.339Z,68.10
2018-10-17T13:55:51.730Z,69.70
2018-10-17T13:58:20.153Z,69.00
2018-10-17T14:00:48.526Z,68.90
2018-10-17T14:03:16.886Z,69.00
2018-10-17T14:05:45.285Z,68.60
2018-10-17T14:08:13.679Z,68.80
2018-10-17T14:10:42.021Z,67.90
2018-10-17T14:13:10.692Z,69.00
2018-10-17T14:15:39.075Z,69.30
2018-10-17T14:18:07.459Z,68.40
2018-10-17T14:20:35.901Z,68.70
2018-10-17T14:23:04.316Z,68.50
2018-10-17T14:25:32.676Z,67.30
2018-10-17T14:28:01.062Z,65.60
2018-10-17T14:30:30.025Z,64.70
2018-10-17T14:32:58.643Z,61.60
2018-10-17T14:35:26.996Z,59.10
2018-10-17T14:37:55.445Z,55.90
2018-10-17T14:40:23.761Z,55.60
2018-10-17T14:42:52.105Z,56.00
2018-10-17T14:45:20.502Z,55.00
2018-10-17T14:47:48.876Z,56.10
2018-10-17T14:50:17.295Z,56.30
2018-10-17T14:52:45.680Z,57.30
2018-10-17T14:55:14.075Z,58.20
2018-10-17T14:57:42.469Z,60.50
2018-10-17T15:00:13.604Z,60.30
2018-10-17T15:02:42.366Z,61.80
2018-10-17T15:05:11.181Z,61.70
2018-10-17T15:07:40.183Z,60.60
2018-10-17T15:10:08.823Z,60.60
2018-10-17T15:12:37.641Z,60.50
2018-10-17T15:15:07.714Z,60.80
2018-10-17T15:17:36.026Z,61.30
2018-10-17T15:20:04.854Z,62.90
2018-10-17T15:22:33.270Z,63.20
2018-10-17T15:25:01.648Z,65.20
2018-10-17T15:27:30.031Z,66.00
2018-10-17T15:29:58.479Z,66.30
2018-10-17T15:32:26.854Z,66.60
2018-10-17T15:34:55.233Z,67.10
2018-10-17T15:37:23.616Z,66.90
2018-10-17T15:39:52.279Z,67.90
2018-10-17T15:42:20.778Z,69.00
2018-10-17T15:44:49.242Z,69.50
2018-10-17T15:47:17.662Z,71.00
2018-10-17T15:49:46.361Z,72.00
2018-10-17T15:52:14.740Z,73.70
2018-10-17T15:54:43.105Z,74.80
2018-10-17T15:57:11.612Z,76.70
2018-10-17T15:59:39.927Z,77.80
2018-10-17T16:02:08.322Z,77.60
2018-10-17T16:04:36.728Z,79.80
2018-10-17T16:07:05.657Z,79.70
2018-10-17T16:09:34.036Z,80.50
2018-10-17T16:12:02.419Z,81.50
2018-10-17T16:14:30.814Z,82.00
2018-10-17T16:16:59.194Z,82.90
2018-10-17T16:19:27.555Z,83.70
2018-10-17T16:21:55.966Z,84.70
2018-10-17T16:24:24.633Z,84.60
2018-10-17T16:26:53.003Z,84.50
2018-10-17T16:29:21.402Z,85.40
2018-10-17T16:31:49.788Z,86.40
2018-10-17T16:34:18.193Z,87.50
2018-10-17T16:36:46.607Z,88.30
2018-10-17T16:39:14.968Z,89.60
2018-10-17T16:41:43.928Z,90.70
2018-10-17T16:44:12.387Z,91.00
2018-10-17T16:46:40.737Z,91.80
2018-10-17T16:49:09.112Z,92.90
2018-10-17T16:51:37.797Z,93.00
2018-10-17T16:54:06.187Z,93.60
2018-10-17T16:56:34.596Z,94.10
2018-10-17T16:59:03.497Z,94.70
2018-10-17T17:01:31.851Z,95.90
2018-10-17T17:04:00.224Z,96.80
2018-10-17T17:06:28.931Z,98.50
2018-10-17T17:08:57.353Z,99.40
2018-10-17T17:11:26.346Z,99.40
2018-10-17T17:13:54.743Z,99.90
2018-10-17T17:16:23.163Z,99.90
2018-10-17T17:18:51.758Z,99.90
2018-10-17T17:21:20.148Z,99.90
2018-10-17T17:23:48.548Z,99.90
2018-10-17T17:26:16.929Z,99.90
2018-10-17T17:28:45.580Z,99.90
2018-10-17T17:31:14.252Z,99.90
2018-10-17T17:33:42.625Z,99.90
2018-10-17T17:36:11.108Z,99.90
2018-10-17T17:38:39.436Z,99.90
2018-10-17T17:41:07.840Z,99.90
2018-10-17T17:43:36.240Z,99.90
2018-10-17T17:46:04.700Z,99.90
2018-10-17T17:48:33.044Z,99.90
2018-10-17T17:51:01.450Z,99.90
2018-10-17T17:53:29.815Z,99.90
2018-10-17T17:55:58.218Z,99.90
2018-10-17T17:58:27.343Z,99.90
2018-10-17T18:00:55.662Z,99.90
2018-10-17T18:03:24.057Z,99.90
2018-10-17T18:07:22.127Z,99.90
2018-10-17T18:09:50.516Z,99.90
2018-10-17T18:12:18.894Z,99.90
2018-10-17T18:14:47.298Z,99.90
2018-10-17T18:17:16.045Z,99.90
2018-10-17T18:19:44.455Z,99.90
2018-10-17T18:22:13.046Z,99.90
2018-10-17T18:24:43.285Z,99.90
2018-10-17T18:27:11.658Z,99.90
2018-10-17T18:29:40.100Z,99.90
2018-10-17T18:32:08.473Z,99.90
2018-10-17T18:34:36.891Z,99.90
2018-10-17T18:37:05.695Z,99.90
2018-10-17T18:39:34.081Z,99.90
2018-10-17T18:42:02.474Z,99.90
2018-10-17T18:44:30.878Z,99.90
2018-10-17T18:46:59.259Z,99.90
2018-10-17T18:49:27.801Z,99.90
2018-10-17T18:51:56.436Z,99.90
2018-10-17T18:54:24.819Z,99.90
2018-10-17T18:56:53.266Z,99.90
2018-10-17T18:59:21.682Z,99.90
2018-10-17T19:01:50.078Z,99.90
2018-10-17T19:04:18.478Z,99.90
2018-10-17T19:06:46.877Z,99.90
2018-10-17T19:09:15.547Z,99.90
2018-10-17T19:11:44.065Z,99.90
2018-10-17T19:14:12.478Z,99.90
2018-10-17T19:16:40.897Z,99.90
2018-10-17T19:19:09.765Z,99.90
2018-10-17T19:21:38.188Z,99.90
2018-10-17T19:24:06.911Z,99.90
2018-10-17T19:26:35.568Z,99.90
2018-10-17T19:29:04.332Z,99.90
2018-10-17T19:31:32.715Z,99.90
2018-10-17T19:34:01.069Z,99.90
2018-10-17T19:36:29.456Z,99.90
2018-10-17T19:38:58.158Z,99.90
2018-10-17T19:41:26.519Z,99.90
2018-10-17T19:43:55.394Z,99.90
2018-10-17T19:46:23.780Z,99.90
2018-10-17T19:48:52.169Z,99.90
2018-10-17T19:51:20.563Z,99.90
2018-10-17T19:53:48.983Z,99.90
2018-10-17T19:56:17.361Z,99.90
2018-10-17T19:58:46.062Z,99.90
2018-10-17T20:01:14.986Z,99.90
2018-10-17T20:03:43.348Z,99.90
2018-10-17T20:06:11.744Z,99.90
2018-10-17T20:08:40.123Z,99.90
2018-10-17T20:11:08.482Z,99.90
2018-10-17T20:13:36.881Z,99.90
2018-10-17T20:16:05.488Z,99.90
2018-10-17T20:18:33.851Z,99.90
2018-10-17T20:21:02.911Z,99.90
2018-10-17T20:23:31.256Z,99.90
2018-10-17T20:25:59.762Z,99.90
2018-10-17T20:28:28.474Z,99.90
2018-10-17T20:30:56.874Z,99.90
2018-10-17T20:33:25.266Z,99.90
2018-10-17T20:35:53.656Z,99.90
2018-10-17T20:38:22.036Z,99.90
2018-10-17T20:40:50.664Z,99.90
2018-10-17T20:43:19.081Z,99.90
2018-10-17T20:45:47.448Z,99.90
2018-10-17T20:48:15.839Z,99.90
2018-10-17T20:50:44.835Z,99.90
2018-10-17T20:53:13.197Z,99.90
2018-10-17T20:55:41.600Z,99.90
2018-10-17T20:58:10.042Z,99.90
2018-10-17T21:00:38.369Z,99.90
2018-10-17T21:03:06.783Z,99.90
2018-10-17T21:05:35.457Z,99.90
2018-10-17T21:08:03.903Z,99.90
2018-10-17T21:10:32.240Z,99.90
2018-10-17T21:13:00.873Z,99.90
2018-10-17T21:15:29.278Z,99.90
2018-10-17T21:17:57.663Z,99.90
2018-10-17T21:20:26.043Z,99.90
2018-10-17T21:22:54.412Z,99.90
2018-10-17T21:25:22.813Z,99.90
2018-10-17T21:27:51.196Z,99.90
2018-10-17T21:30:19.564Z,99.90
2018-10-17T21:32:47.935Z,99.90
2018-10-17T21:35:16.358Z,99.90
2018-10-17T21:37:45.322Z,99.90
2018-10-17T21:40:13.759Z,99.90
2018-10-17T21:42:42.156Z,99.90
2018-10-17T21:45:10.708Z,99.90
2018-10-17T21:47:39.090Z,99.90
2018-10-17T21:50:07.739Z,99.90
2018-10-17T21:52:36.129Z,99.90
2018-10-17T21:55:04.823Z,99.90
2018-10-17T21:57:33.227Z,99.90
2018-10-17T22:00:01.609Z,99.90
2018-10-17T22:02:30.250Z,99.90
2018-10-17T22:04:58.682Z,99.90
2018-10-17T22:07:27.048Z,99.90
2018-10-17T22:09:55.471Z,99.90
2018-10-17T22:12:24.129Z,99.90
2018-10-17T22:14:52.514Z,99.90
2018-10-17T22:17:26.191Z,99.90
2018-10-17T22:19:54.573Z,99.90
2018-10-17T22:22:23.262Z,99.90
2018-10-17T22:24:52.072Z,99.90
2018-10-17T22:27:20.642Z,99.90
2018-10-17T22:29:49.245Z,99.90
2018-10-17T22:32:17.650Z,99.90
2018-10-17T22:34:46.189Z,99.90
2018-10-17T22:37:14.555Z,99.90
2018-10-17T22:39:42.945Z,99.90
2018-10-17T22:42:11.335Z,99.90
2018-10-17T22:47:04.714Z,99.90
2018-10-17T22:49:33.103Z,99.90
2018-10-17T22:52:01.472Z,99.90
2018-10-17T22:54:29.909Z,99.90
2018-10-17T22:56:58.397Z,99.90
2018-10-17T22:59:26.893Z,99.90
2018-10-17T23:01:55.347Z,99.90
2018-10-17T23:04:23.706Z,99.90
2018-10-17T23:06:52.136Z,99.90
2018-10-17T23:09:20.522Z,99.90
2018-10-17T23:11:48.888Z,99.90
2018-10-17T23:14:17.344Z,99.90
2018-10-17T23:16:46.000Z,99.90
2018-10-17T23:19:14.351Z,99.90
2018-10-17T23:21:42.723Z,99.90
2018-10-17T23:24:11.128Z,99.90
2018-10-17T23:26:39.805Z,99.90
2018-10-17T23:29:08.166Z,99.90
2018-10-17T23:31:36.874Z,99.90
2018-10-17T23:34:05.439Z,99.90
2018-10-17T23:36:33.799Z,99.90
2018-10-17T23:39:02.201Z,99.90
2018-10-17T23:41:30.575Z,99.90
2018-10-17T23:43:58.961Z,99.90
2018-10-17T23:46:27.523Z,99.90
2018-10-17T23:48:55.887Z,99.90
2018-10-17T23:51:24.511Z,99.90
2018-10-17T23:53:52.951Z,99.90
2018-10-17T23:56:21.283Z,99.90
2018-10-17T23:58:49.667Z,99.90
